createdAt,value
2024-05-09T00:00:42.027Z,100868.33
2024-05-09T00:03:11.037Z,100864.20
2024-05-09T00:05:43.774Z,100866.91
2024-05-09T00:08:11.849Z,100869.77
2024-05-09T00:10:40.706Z,100873.30
2024-05-09T00:13:09.741Z,100876.60
2024-05-09T00:15:37.656Z,100873.17
2024-05-09T00:18:06.615Z,100876.83
2024-05-09T00:20:38.996Z,100875.24
2024-05-09T00:23:12.750Z,100875.90
2024-05-09T00:25:44.475Z,100872.75
2024-05-09T00:28:12.728Z,100871.64
2024-05-09T00:30:40.768Z,100872.96
2024-05-09T00:33:09.860Z,100879.09
2024-05-09T00:35:38.886Z,100879.65
2024-05-09T00:38:06.908Z,100880.34
2024-05-09T00:40:39.874Z,100883.77
2024-05-09T00:43:10.954Z,100885.38
2024-05-09T00:45:38.557Z,100889.04
2024-05-09T00:48:07.997Z,100892.95
2024-05-09T00:50:38.815Z,100897.14
2024-05-09T00:53:06.746Z,100898.36
2024-05-09T00:55:37.825Z,100896.09
2024-05-09T00:58:05.471Z,100894.59
2024-05-09T01:00:38.892Z,100896.70
2024-05-09T01:03:12.713Z,100894.99
2024-05-09T01:05:43.849Z,100897.13
2024-05-09T01:08:11.877Z,100896.54
2024-05-09T01:10:42.793Z,100896.73
2024-05-09T01:13:12.771Z,100895.16
2024-05-09T01:15:40.424Z,100894.81
2024-05-09T01:18:10.371Z,100894.54
2024-05-09T01:20:42.357Z,100890.69
2024-05-09T01:23:13.454Z,100892.77
2024-05-09T01:25:42.584Z,100891.28
2024-05-09T01:28:10.154Z,100889.00
2024-05-09T01:30:38.407Z,100884.49
2024-05-09T01:33:08.089Z,100884.17
2024-05-09T01:35:37.563Z,100882.77
2024-05-09T01:38:05.328Z,100884.99
2024-05-09T01:40:37.866Z,100884.95
2024-05-09T01:43:08.726Z,100884.87
2024-05-09T01:45:37.247Z,100887.23
2024-05-09T01:48:05.448Z,100886.65
2024-05-09T01:50:39.208Z,100888.73
2024-05-09T01:53:10.389Z,100885.31
2024-05-09T01:55:38.332Z,100887.64
2024-05-09T01:58:05.816Z,100888.38
2024-05-09T02:00:39.104Z,100895.21
2024-05-09T02:03:10.921Z,100897.04
2024-05-09T02:05:40.446Z,100896.84
2024-05-09T02:08:12.658Z,100900.36
2024-05-09T02:10:40.419Z,100905.29
2024-05-09T02:13:07.952Z,100904.80
2024-05-09T02:15:35.536Z,100907.42
2024-05-09T02:18:03.417Z,100909.40
2024-05-09T02:20:36.130Z,100914.48
2024-05-09T02:23:05.921Z,100913.33
2024-05-09T02:25:33.745Z,100913.90
2024-05-09T02:28:01.163Z,100917.10
2024-05-09T02:32:59.597Z,100914.59
2024-05-09T02:35:27.249Z,100917.21
2024-05-09T02:37:54.771Z,100917.42
2024-05-09T02:40:29.139Z,100917.86
2024-05-09T02:43:03.785Z,100920.13
2024-05-09T02:45:31.194Z,100923.48
2024-05-09T02:47:58.978Z,100923.98
2024-05-09T02:50:34.268Z,100930.41
2024-05-09T02:53:07.112Z,100931.17
2024-05-09T02:55:34.861Z,100933.02
2024-05-09T02:58:02.246Z,100935.20
2024-05-09T03:00:38.229Z,100936.00
2024-05-09T03:03:10.990Z,100933.77
2024-05-09T03:05:41.480Z,100935.35
2024-05-09T03:08:09.465Z,100930.20
2024-05-09T03:10:38.769Z,100934.11
2024-05-09T03:13:07.790Z,100936.41
2024-05-09T03:15:35.439Z,100932.67
2024-05-09T03:18:03.689Z,100936.48
2024-05-09T03:20:34.822Z,100941.58
2024-05-09T03:23:07.532Z,100944.41
2024-05-09T03:25:35.656Z,100950.23
2024-05-09T03:28:03.503Z,100953.66
2024-05-09T03:30:39.533Z,100956.98
2024-05-09T03:33:18.690Z,100954.73
2024-05-09T03:35:48.046Z,100960.39
2024-05-09T03:38:15.984Z,100963.67
2024-05-09T03:40:47.636Z,100965.08
2024-05-09T03:43:15.690Z,100963.91
2024-05-09T03:45:43.424Z,100967.77
2024-05-09T03:48:11.149Z,100970.33
2024-05-09T03:50:39.023Z,100971.14
2024-05-09T03:53:09.665Z,100971.07
2024-05-09T03:55:37.220Z,100972.02
2024-05-09T03:58:07.517Z,100971.65
2024-05-09T04:00:38.703Z,100977.64
2024-05-09T04:03:10.324Z,100982.77
2024-05-09T04:13:37.655Z,100996.91
2024-05-09T04:16:04.783Z,100998.58
2024-05-09T04:18:31.860Z,101002.08
2024-05-09T04:20:58.829Z,101002.98
2024-05-09T04:23:25.935Z,101000.41
2024-05-09T04:25:53.077Z,101004.31
2024-05-09T04:28:20.146Z,101005.17
2024-05-09T04:30:46.928Z,101007.14
2024-05-09T04:33:14.749Z,101006.65
2024-05-09T04:35:43.276Z,101006.23
2024-05-09T04:38:12.090Z,101007.72
2024-05-09T04:40:39.374Z,101010.74
2024-05-09T04:43:12.828Z,101011.02
2024-05-09T04:45:40.035Z,101014.55
2024-05-09T04:48:07.464Z,101019.08
2024-05-09T04:50:38.177Z,101020.86
2024-05-09T04:53:08.251Z,101019.75
2024-05-09T04:55:36.992Z,101016.92
2024-05-09T04:58:06.121Z,101016.86
2024-05-09T05:00:36.822Z,101017.97
2024-05-09T05:03:07.924Z,101020.88
2024-05-09T05:05:42.012Z,101024.02
2024-05-09T05:08:13.367Z,101026.23
2024-05-09T05:10:41.228Z,101028.83
2024-05-09T05:13:24.503Z,101025.58
2024-05-09T05:15:54.679Z,101027.23
2024-05-09T05:18:21.820Z,101029.06
2024-05-09T05:20:49.024Z,101031.73
2024-05-09T05:23:18.024Z,101033.63
2024-05-09T05:25:48.839Z,101035.09
2024-05-09T05:28:15.879Z,101038.81
2024-05-09T05:30:42.860Z,101037.48
2024-05-09T05:33:11.229Z,101037.69
2024-05-09T05:35:38.787Z,101042.08
2024-05-09T05:38:06.310Z,101041.98
2024-05-09T05:40:36.945Z,101044.21
2024-05-09T05:43:05.605Z,101044.73
2024-05-09T05:45:33.125Z,101048.59
2024-05-09T05:48:02.893Z,101047.40
2024-05-09T05:50:35.723Z,101052.46
2024-05-09T05:53:08.878Z,101056.02
2024-05-09T05:55:38.604Z,101054.79
2024-05-09T05:58:08.454Z,101053.52
2024-05-09T06:00:38.821Z,101050.23
2024-05-09T06:03:08.442Z,101050.80
2024-05-09T06:05:36.178Z,101049.61
2024-05-09T06:08:03.666Z,101050.54
2024-05-09T06:10:37.801Z,101048.28
2024-05-09T06:13:09.610Z,101046.61
2024-05-09T06:15:36.621Z,101047.05
2024-05-09T06:18:05.660Z,101048.73
2024-05-09T06:20:36.466Z,101049.30
2024-05-09T06:27:36.087Z,101056.35
2024-05-09T06:30:03.799Z,101057.00
2024-05-09T06:32:31.954Z,101053.82
2024-05-09T06:34:59.078Z,101057.62
2024-05-09T06:37:26.027Z,101054.85
2024-05-09T06:39:53.158Z,101058.72
2024-05-09T06:42:20.156Z,101058.15
2024-05-09T06:44:47.097Z,101059.35
2024-05-09T06:47:14.140Z,101063.52
2024-05-09T06:49:42.789Z,101066.33
2024-05-09T06:52:09.609Z,101062.77
2024-05-09T06:54:37.052Z,101064.16
2024-05-09T06:57:04.401Z,101064.25
2024-05-09T06:59:31.605Z,101063.42
2024-05-09T07:01:58.720Z,101065.79
2024-05-09T07:04:25.825Z,101062.41
2024-05-09T07:06:53.231Z,101063.61
2024-05-09T07:09:20.262Z,101070.18
2024-05-09T07:11:47.368Z,101067.33
2024-05-09T07:14:14.776Z,101066.20
2024-05-09T07:16:42.029Z,101071.95
2024-05-09T07:19:09.272Z,101073.70
2024-05-09T07:21:36.442Z,101072.89
2024-05-09T07:24:03.597Z,101074.05
2024-05-09T07:26:30.930Z,101074.89
2024-05-09T07:28:58.086Z,101073.98
2024-05-09T07:31:27.494Z,101074.94
2024-05-09T07:33:54.688Z,101069.59
2024-05-09T07:36:21.641Z,101071.54
2024-05-09T07:38:48.643Z,101068.47
2024-05-09T07:41:15.937Z,101071.41
2024-05-09T07:43:43.682Z,101069.27
2024-05-09T07:47:14.043Z,101069.44
2024-05-09T07:54:09.969Z,101069.81
2024-05-09T07:56:37.498Z,101070.27
2024-05-09T07:59:04.496Z,101071.72
2024-05-09T08:01:31.928Z,101073.24
2024-05-09T08:03:59.029Z,101069.88
2024-05-09T08:06:26.123Z,101070.38
2024-05-09T08:08:53.364Z,101069.63
2024-05-09T08:11:20.270Z,101068.23
2024-05-09T08:13:47.309Z,101071.42
2024-05-09T08:16:14.477Z,101070.14
2024-05-09T08:18:41.838Z,101068.36
2024-05-09T08:21:08.827Z,101067.02
2024-05-09T08:23:35.685Z,101068.03
2024-05-09T08:26:02.521Z,101066.46
2024-05-09T08:28:29.864Z,101066.40
2024-05-09T08:30:57.074Z,101066.15
2024-05-09T08:33:24.224Z,101064.46
2024-05-09T08:35:53.770Z,101062.33
2024-05-09T08:38:20.739Z,101059.48
2024-05-09T08:40:48.217Z,101059.05
2024-05-09T08:43:28.342Z,101056.02
2024-05-09T08:45:55.952Z,101054.52
2024-05-09T08:48:23.632Z,101051.46
2024-05-09T08:50:53.927Z,101051.42
2024-05-09T08:53:22.497Z,101050.11
2024-05-09T08:55:49.352Z,101045.01
2024-05-09T08:58:19.375Z,101043.09
2024-05-09T09:00:46.972Z,101045.30
2024-05-09T09:03:15.557Z,101040.23
2024-05-09T09:05:48.276Z,101035.82
2024-05-09T09:08:15.151Z,101035.05
2024-05-09T09:10:42.309Z,101033.98
2024-05-09T09:13:10.344Z,101035.46
2024-05-09T09:15:50.055Z,101034.84
2024-05-09T09:18:17.586Z,101033.20
2024-05-09T09:20:45.382Z,101029.07
2024-05-09T09:23:12.338Z,101032.72
2024-05-09T09:25:40.008Z,101029.46
2024-05-09T09:28:07.138Z,101028.55
2024-05-09T09:30:37.552Z,101025.87
2024-05-09T09:33:05.966Z,101025.61
2024-05-09T09:35:33.742Z,101028.60
2024-05-09T09:38:05.146Z,101025.85
2024-05-09T09:40:40.383Z,101024.39
2024-05-09T09:43:13.590Z,101021.17
2024-05-09T09:45:42.566Z,101024.00
2024-05-09T09:48:09.457Z,101023.32
2024-05-09T09:50:36.434Z,101021.33
2024-05-09T09:53:04.805Z,101018.05
2024-05-09T09:55:32.001Z,101017.85
2024-05-09T09:57:59.061Z,101010.58
2024-05-09T10:00:32.031Z,101007.34
2024-05-09T10:03:00.735Z,101007.12
2024-05-09T10:05:28.432Z,101003.74
2024-05-09T10:07:55.513Z,101002.86
2024-05-09T10:10:31.953Z,101001.05
2024-05-09T10:13:03.592Z,100998.93
2024-05-09T10:15:46.478Z,100997.82
2024-05-09T10:18:14.363Z,100990.21
2024-05-09T10:20:45.004Z,100993.23
2024-05-09T10:23:25.620Z,100991.48
2024-05-09T10:25:56.544Z,100988.81
2024-05-09T10:28:27.368Z,100988.38
2024-05-09T10:31:10.046Z,100986.33
2024-05-09T10:33:48.359Z,100986.02
2024-05-09T10:36:23.701Z,100983.19
2024-05-09T10:38:54.047Z,100983.96
2024-05-09T10:41:22.113Z,100978.36
2024-05-09T10:43:49.322Z,100974.59
2024-05-09T10:46:18.195Z,100967.27
2024-05-09T10:48:45.951Z,100965.31
2024-05-09T10:51:12.864Z,100967.55
2024-05-09T10:53:46.230Z,100969.25
2024-05-09T10:56:13.294Z,100962.86
2024-05-09T10:58:40.282Z,100963.20
2024-05-09T11:01:08.305Z,100958.80
2024-05-09T11:03:36.130Z,100952.91
2024-05-09T11:06:03.528Z,100952.05
2024-05-09T11:08:31.482Z,100949.82
2024-05-09T11:11:02.210Z,100947.74
2024-05-09T11:13:29.938Z,100947.55
2024-05-09T11:15:57.305Z,100949.10
2024-05-09T11:18:26.071Z,100946.21
2024-05-09T11:20:54.563Z,100944.66
2024-05-09T11:23:21.985Z,100938.42
2024-05-09T11:25:52.207Z,100934.74
2024-05-09T11:28:19.405Z,100934.32
2024-05-09T11:30:46.979Z,100934.54
2024-05-09T11:33:14.622Z,100930.64
2024-05-09T11:35:41.978Z,100927.91
2024-05-09T11:38:09.184Z,100923.15
2024-05-09T11:40:37.329Z,100918.15
2024-05-09T11:43:07.415Z,100916.36
2024-05-09T11:45:34.449Z,100916.71
2024-05-09T11:48:01.575Z,100913.14
2024-05-09T11:50:33.145Z,100909.40
2024-05-09T11:53:03.228Z,100911.85
2024-05-09T11:55:30.630Z,100906.86
2024-05-09T11:57:57.804Z,100911.60
2024-05-09T12:00:33.026Z,100906.57
2024-05-09T12:03:04.187Z,100904.95
2024-05-09T12:05:31.412Z,100904.00
2024-05-09T12:07:58.498Z,100903.02
2024-05-09T12:10:32.660Z,100894.61
2024-05-09T12:13:03.126Z,100892.25
2024-05-09T12:15:31.380Z,100889.56
2024-05-09T12:18:01.248Z,100892.79
2024-05-09T12:20:36.555Z,100888.30
2024-05-09T12:23:10.556Z,100883.71
2024-05-09T12:25:38.528Z,100884.39
2024-05-09T12:28:06.646Z,100884.17
2024-05-09T12:30:38.207Z,100885.70
2024-05-09T12:33:08.728Z,100885.21
2024-05-09T12:35:36.214Z,100881.98
2024-05-09T12:38:09.380Z,100877.95
2024-05-09T12:40:38.805Z,100876.95
2024-05-09T12:43:06.994Z,100872.71
2024-05-09T12:45:34.376Z,100869.04
2024-05-09T12:48:01.507Z,100867.43
2024-05-09T12:50:33.059Z,100868.33
2024-05-09T12:53:03.347Z,100869.04
2024-05-09T12:55:37.597Z,100863.48
2024-05-09T12:58:12.232Z,100869.48
2024-05-09T13:00:39.448Z,100866.58
2024-05-09T13:03:06.531Z,100861.84
2024-05-09T13:05:33.793Z,100856.33
2024-05-09T13:08:01.274Z,100855.66
2024-05-09T13:10:32.408Z,100855.90
2024-05-09T13:13:01.130Z,100857.39
2024-05-09T13:15:29.673Z,100855.09
2024-05-09T13:17:59.459Z,100853.61
2024-05-09T13:20:33.510Z,100852.05
2024-05-09T13:23:06.748Z,100847.98
2024-05-09T13:25:38.150Z,100847.33
2024-05-09T13:28:06.086Z,100843.64
2024-05-09T13:30:39.826Z,100840.48
2024-05-09T13:33:11.011Z,100841.45
2024-05-09T13:35:40.166Z,100841.95
2024-05-09T13:38:07.609Z,100839.31
2024-05-09T13:40:36.311Z,100841.80
2024-05-09T13:43:05.112Z,100841.65
2024-05-09T13:45:33.014Z,100846.27
2024-05-09T13:48:01.452Z,100843.39
2024-05-09T13:50:35.669Z,100845.11
2024-05-09T13:53:04.359Z,100838.20
2024-05-09T13:55:32.074Z,100832.98
2024-05-09T13:57:59.171Z,100836.84
2024-05-09T14:00:38.323Z,100828.53
2024-05-09T14:03:12.108Z,100828.88
2024-05-09T14:05:39.341Z,100830.73
2024-05-09T14:08:06.489Z,100830.70
2024-05-09T14:10:34.808Z,100828.65
2024-05-09T14:13:02.029Z,100828.02
2024-05-09T14:15:29.577Z,100819.61
2024-05-09T14:17:57.526Z,100817.94
2024-05-09T14:20:30.917Z,100815.70
2024-05-09T14:23:00.212Z,100816.67
2024-05-09T14:25:28.903Z,100815.02
2024-05-09T14:27:57.050Z,100814.16
2024-05-09T14:30:31.203Z,100810.65
2024-05-09T14:33:04.512Z,100806.94
2024-05-09T14:35:32.493Z,100807.48
2024-05-09T14:37:59.611Z,100806.20
2024-05-09T14:40:37.058Z,100806.38
2024-05-09T14:43:13.370Z,100810.75
2024-05-09T14:45:41.185Z,100805.23
2024-05-09T14:48:08.841Z,100806.96
2024-05-09T14:50:39.033Z,100808.27
2024-05-09T14:53:10.268Z,100811.13
2024-05-09T14:55:57.679Z,100810.33
2024-05-09T14:58:25.805Z,100803.27
2024-05-09T15:00:53.008Z,100806.29
2024-05-09T15:03:20.990Z,100806.32
2024-05-09T15:05:49.266Z,100800.66
2024-05-09T15:08:17.036Z,100801.16
2024-05-09T15:10:44.418Z,100799.36
2024-05-09T15:13:13.448Z,100798.12
2024-05-09T15:15:44.985Z,100800.09
2024-05-09T15:18:16.573Z,100795.36
2024-05-09T15:20:47.618Z,100798.05
2024-05-09T15:23:16.997Z,100793.88
2024-05-09T15:25:47.551Z,100791.61
2024-05-09T15:28:16.683Z,100786.36
2024-05-09T15:30:47.536Z,100788.83
2024-05-09T15:33:17.798Z,100790.98
2024-05-09T15:35:48.487Z,100792.91
2024-05-09T15:38:18.756Z,100793.26
2024-05-09T15:40:48.346Z,100791.94
2024-05-09T15:43:18.569Z,100789.75
2024-05-09T15:45:47.418Z,100791.80
2024-05-09T15:48:16.689Z,100793.02
2024-05-09T15:50:45.765Z,100794.19
2024-05-09T15:53:14.720Z,100792.11
2024-05-09T15:55:44.528Z,100788.30
2024-05-09T15:58:14.383Z,100786.55
2024-05-09T16:00:45.055Z,100786.98
2024-05-09T16:03:15.955Z,100789.69
2024-05-09T16:05:47.341Z,100790.22
2024-05-09T16:08:17.552Z,100788.86
2024-05-09T16:10:48.079Z,100791.60
2024-05-09T16:13:19.510Z,100790.73
2024-05-09T16:23:19.529Z,100790.14
2024-05-09T16:30:35.687Z,100788.35
2024-05-09T16:33:04.965Z,100787.45
2024-05-09T16:35:34.404Z,100788.10
2024-05-09T16:45:35.640Z,100783.37
2024-05-09T16:48:11.490Z,100783.68
2024-05-09T16:50:39.314Z,100784.98
2024-05-09T16:53:07.311Z,100785.09
2024-05-09T16:55:35.598Z,100785.33
2024-05-09T16:58:03.824Z,100787.68
2024-05-09T17:00:40.014Z,100788.83
2024-05-09T17:03:13.322Z,100791.27
2024-05-09T17:05:43.187Z,100787.55
2024-05-09T17:08:11.111Z,100790.73
2024-05-09T17:10:38.830Z,100793.26
2024-05-09T17:13:07.808Z,100796.88
2024-05-09T17:15:37.242Z,100798.98
2024-05-09T17:18:06.599Z,100796.39
2024-05-09T17:20:36.704Z,100799.43
2024-05-09T17:23:12.170Z,100799.42
2024-05-09T17:25:39.964Z,100803.51
2024-05-09T17:28:08.471Z,100802.84
2024-05-09T17:30:38.369Z,100802.87
2024-05-09T17:33:08.691Z,100803.23
2024-05-09T17:35:37.395Z,100804.09
2024-05-09T17:38:05.860Z,100810.98
2024-05-09T17:40:36.144Z,100809.19
2024-05-09T17:43:06.776Z,100809.96
2024-05-09T17:45:38.100Z,100813.44
2024-05-09T17:48:06.301Z,100815.61
2024-05-09T17:50:36.454Z,100817.36
2024-05-09T17:53:06.035Z,100817.64
2024-05-09T17:55:34.242Z,100818.77
2024-05-09T17:58:02.751Z,100821.55
2024-05-09T18:00:37.706Z,100823.48
2024-05-09T18:03:10.222Z,100827.57
2024-05-09T18:05:38.650Z,100829.37
2024-05-09T18:08:06.962Z,100833.21
2024-05-09T18:10:38.142Z,100835.55
2024-05-09T18:13:08.220Z,100839.37
2024-05-09T18:15:36.415Z,100839.23
2024-05-09T18:18:04.538Z,100843.42
2024-05-09T18:20:40.965Z,100846.29
2024-05-09T18:23:17.271Z,100847.17
2024-05-09T18:25:46.735Z,100850.70
2024-05-09T18:28:15.144Z,100851.35
2024-05-09T18:30:42.908Z,100855.19
2024-05-09T18:33:11.422Z,100854.28
2024-05-09T18:35:42.116Z,100859.67
2024-05-09T18:38:09.624Z,100860.37
2024-05-09T18:40:38.494Z,100855.41
2024-05-09T18:43:08.813Z,100858.91
2024-05-09T18:45:38.380Z,100860.20
2024-05-09T18:48:08.071Z,100863.28
2024-05-09T18:50:39.191Z,100862.86
2024-05-09T18:53:09.779Z,100864.51
2024-05-09T18:55:37.392Z,100866.79
2024-05-09T18:58:05.274Z,100872.04
2024-05-09T19:00:37.456Z,100870.14
2024-05-09T19:03:12.832Z,100870.20
2024-05-09T19:05:43.520Z,100874.77
2024-05-09T19:08:12.427Z,100875.95
2024-05-09T19:10:40.414Z,100876.80
2024-05-09T19:13:11.879Z,100878.34
2024-05-09T19:15:42.285Z,100881.05
2024-05-09T19:18:11.490Z,100881.94
2024-05-09T19:20:39.649Z,100883.05
2024-05-09T19:23:07.699Z,100884.11
2024-05-09T19:25:36.768Z,100886.65
2024-05-09T19:28:05.478Z,100888.92
2024-05-09T19:30:38.986Z,100885.84
2024-05-09T19:33:12.348Z,100888.92
2024-05-09T19:35:41.447Z,100898.16
2024-05-09T19:38:08.994Z,100902.51
2024-05-09T19:40:36.826Z,100899.02
2024-05-09T19:43:05.842Z,100895.20
2024-05-09T19:45:35.077Z,100896.99
2024-05-09T19:48:04.129Z,100901.08
2024-05-09T19:50:39.972Z,100903.55
2024-05-09T19:53:12.262Z,100898.38
2024-05-09T19:55:40.594Z,100902.98
2024-05-09T19:58:09.291Z,100906.77
2024-05-09T20:00:39.596Z,100908.34
2024-05-09T20:03:10.616Z,100910.76
2024-05-09T20:05:38.740Z,100913.54
2024-05-09T20:08:07.030Z,100917.69
2024-05-09T20:10:37.692Z,100917.60
2024-05-09T20:13:06.793Z,100916.92
2024-05-09T20:15:36.139Z,100919.17
2024-05-09T20:18:04.316Z,100921.51
2024-05-09T20:20:37.782Z,100924.35
2024-05-09T20:23:12.459Z,100919.97
2024-05-09T20:25:40.885Z,100922.22
2024-05-09T20:32:42.984Z,100921.90
2024-05-09T20:35:10.521Z,100923.20
2024-05-09T20:37:37.988Z,100926.55
2024-05-09T20:40:09.978Z,100926.48
2024-05-09T20:42:45.300Z,100928.81
2024-05-09T20:45:12.731Z,100928.83
2024-05-09T20:47:40.510Z,100926.70
2024-05-09T20:50:20.176Z,100930.85
2024-05-09T20:52:55.653Z,100935.92
2024-05-09T20:55:23.124Z,100936.66
2024-05-09T20:57:50.688Z,100938.46
2024-05-09T21:00:19.402Z,100940.90
2024-05-09T21:02:53.146Z,100939.01
2024-05-09T21:05:20.947Z,100940.08
2024-05-09T21:07:48.515Z,100938.17
2024-05-09T21:10:22.298Z,100937.10
2024-05-09T21:12:51.507Z,100940.77
2024-05-09T21:15:19.406Z,100945.86
2024-05-09T21:17:47.002Z,100943.52
2024-05-09T21:20:20.158Z,100941.62
2024-05-09T21:22:51.480Z,100944.55
2024-05-09T21:25:19.041Z,100946.05
2024-05-09T21:27:46.876Z,100945.75
2024-05-09T21:30:22.266Z,100946.30
2024-05-09T21:32:56.048Z,100947.39
2024-05-09T21:35:23.928Z,100954.35
2024-05-09T21:37:51.946Z,100959.25
2024-05-09T21:40:27.288Z,100960.86
2024-05-09T21:43:01.438Z,100963.12
2024-05-09T21:45:29.216Z,100964.08
2024-05-09T21:47:56.827Z,100962.71
2024-05-09T21:50:32.167Z,100967.96
2024-05-09T21:53:06.784Z,100973.67
2024-05-09T21:55:34.500Z,100968.86
2024-05-09T21:58:02.497Z,100972.36
2024-05-09T22:00:36.075Z,100976.02
2024-05-09T22:03:06.891Z,100975.96
2024-05-09T22:05:35.208Z,100974.79
2024-05-09T22:08:03.339Z,100975.73
2024-05-09T22:10:34.654Z,100976.73
2024-05-09T22:13:07.813Z,100976.39
2024-05-09T22:15:36.636Z,100979.10
2024-05-09T22:18:05.701Z,100979.73
2024-05-09T22:20:37.544Z,100982.08
2024-05-09T22:23:08.190Z,100983.33
2024-05-09T22:25:38.230Z,100980.36
2024-05-09T22:28:06.267Z,100982.35
2024-05-09T22:30:37.764Z,100983.33
2024-05-09T22:33:08.734Z,100981.85
2024-05-09T22:35:37.547Z,100982.25
2024-05-09T22:38:05.557Z,100985.85
2024-05-09T22:40:42.906Z,100987.27
2024-05-09T22:43:24.067Z,100988.64
2024-05-09T22:45:54.397Z,100984.08
2024-05-09T22:48:23.136Z,100985.35
2024-05-09T22:50:50.853Z,100985.84
2024-05-09T22:53:19.224Z,100987.22
2024-05-09T22:55:47.015Z,100988.49
2024-05-09T22:58:14.611Z,100985.54
2024-05-09T23:00:42.271Z,100984.71
2024-05-09T23:03:09.980Z,100985.54
2024-05-09T23:05:37.520Z,100986.88
2024-05-09T23:08:05.372Z,100982.50
2024-05-09T23:10:36.666Z,100981.71
2024-05-09T23:13:06.972Z,100978.10
2024-05-09T23:15:36.251Z,100978.45
2024-05-09T23:18:04.362Z,100978.48
2024-05-09T23:20:37.504Z,100978.98
2024-05-09T23:23:08.119Z,100980.10
2024-05-09T23:25:36.927Z,100983.14
2024-05-09T23:28:05.294Z,100980.17
2024-05-09T23:30:37.861Z,100976.64
2024-05-09T23:33:09.826Z,100974.16
2024-05-09T23:35:38.319Z,100979.38
2024-05-09T23:38:06.079Z,100979.40
2024-05-09T23:40:38.742Z,100979.89
2024-05-09T23:43:09.788Z,100981.00
2024-05-09T23:45:37.879Z,100979.48
2024-05-09T23:48:06.065Z,100981.34
2024-05-09T23:50:36.797Z,100979.58
2024-05-09T23:53:07.247Z,100976.44
2024-05-09T23:55:36.073Z,100974.23
2024-05-09T23:58:04.047Z,100976.04
